sensor_id;sensor_type;location;lat;lon;timestamp;temperature;humidity
48604;DHT22;32708;51.212;6.788;2023-06-10T00:00:46;22.20;1.00
48604;DHT22;32708;51.212;6.788;2023-06-10T00:03:12;22.20;1.00
48604;DHT22;32708;51.212;6.788;2023-06-10T00:05:38;22.20;1.00
48604;DHT22;32708;51.212;6.788;2023-06-10T00:08:06;21.90;1.00
48604;DHT22;32708;51.212;6.788;2023-06-10T00:10:37;22.30;99.90
48604;DHT22;32708;51.212;6.788;2023-06-10T00:13:05;22.30;1.00
48604;DHT22;32708;51.212;6.788;2023-06-10T00:15:37;22.30;99.90
48604;DHT22;32708;51.212;6.788;2023-06-10T00:18:04;22.20;1.00
48604;DHT22;32708;51.212;6.788;2023-06-10T00:20:31;22.10;1.00
48604;DHT22;32708;51.212;6.788;2023-06-10T00:22:58;22.10;1.00
48604;DHT22;32708;51.212;6.788;2023-06-10T00:25:27;22.20;1.00
48604;DHT22;32708;51.212;6.788;2023-06-10T00:27:53;22.10;1.00
48604;DHT22;32708;51.212;6.788;2023-06-10T00:30:19;22.00;1.00
48604;DHT22;32708;51.212;6.788;2023-06-10T00:32:46;22.00;1.00
48604;DHT22;32708;51.212;6.788;2023-06-10T00:35:12;22.00;1.00
48604;DHT22;32708;51.212;6.788;2023-06-10T00:37:38;22.00;1.00
48604;DHT22;32708;51.212;6.788;2023-06-10T00:40:05;22.10;1.00
48604;DHT22;32708;51.212;6.788;2023-06-10T00:42:32;21.90;1.00
48604;DHT22;32708;51.212;6.788;2023-06-10T00:44:58;21.90;1.00
48604;DHT22;32708;51.212;6.788;2023-06-10T00:47:25;22.00;1.00
48604;DHT22;32708;51.212;6.788;2023-06-10T00:49:54;21.90;1.00
48604;DHT22;32708;51.212;6.788;2023-06-10T00:52:22;21.90;1.00
48604;DHT22;32708;51.212;6.788;2023-06-10T00:54:53;21.90;1.00
48604;DHT22;32708;51.212;6.788;2023-06-10T00:57:20;21.80;13.00
48604;DHT22;32708;51.212;6.788;2023-06-10T00:59:49;21.80;1.60
48604;DHT22;32708;51.212;6.788;2023-06-10T01:02:15;21.80;50.70
48604;DHT22;32708;51.212;6.788;2023-06-10T01:04:42;21.70;99.90
48604;DHT22;32708;51.212;6.788;2023-06-10T01:07:25;21.70;98.60
48604;DHT22;32708;51.212;6.788;2023-06-10T01:10:24;21.70;92.70
48604;DHT22;32708;51.212;6.788;2023-06-10T01:13:05;21.70;96.60
48604;DHT22;32708;51.212;6.788;2023-06-10T01:15:35;21.60;99.90
48604;DHT22;32708;51.212;6.788;2023-06-10T01:18:09;21.70;42.80
48604;DHT22;32708;51.212;6.788;2023-06-10T01:20:41;21.80;40.80
48604;DHT22;32708;51.212;6.788;2023-06-10T01:23:10;21.70;99.30
48604;DHT22;32708;51.212;6.788;2023-06-10T01:25:44;21.70;73.80
48604;DHT22;32708;51.212;6.788;2023-06-10T01:28:22;21.70;46.50
48604;DHT22;32708;51.212;6.788;2023-06-10T01:34:18;21.70;32.60
48604;DHT22;32708;51.212;6.788;2023-06-10T01:36:47;21.70;25.70
48604;DHT22;32708;51.212;6.788;2023-06-10T01:39:17;21.70;28.70
48604;DHT22;32708;51.212;6.788;2023-06-10T01:41:48;21.70;5.20
48604;DHT22;32708;51.212;6.788;2023-06-10T01:44:22;21.60;33.40
48604;DHT22;32708;51.212;6.788;2023-06-10T01:46:49;21.60;51.50
48604;DHT22;32708;51.212;6.788;2023-06-10T01:49:16;21.60;44.70
48604;DHT22;32708;51.212;6.788;2023-06-10T01:51:43;21.60;58.70
48604;DHT22;32708;51.212;6.788;2023-06-10T01:54:09;21.50;92.80
48604;DHT22;32708;51.212;6.788;2023-06-10T01:56:36;21.40;99.90
48604;DHT22;32708;51.212;6.788;2023-06-10T01:59:02;21.40;99.90
48604;DHT22;32708;51.212;6.788;2023-06-10T02:01:29;21.40;99.90
48604;DHT22;32708;51.212;6.788;2023-06-10T02:03:55;21.40;99.90
48604;DHT22;32708;51.212;6.788;2023-06-10T02:06:21;21.50;99.90
48604;DHT22;32708;51.212;6.788;2023-06-10T02:08:47;21.50;98.00
48604;DHT22;32708;51.212;6.788;2023-06-10T02:11:13;21.50;99.90
48604;DHT22;32708;51.212;6.788;2023-06-10T02:13:39;21.50;99.90
48604;DHT22;32708;51.212;6.788;2023-06-10T02:16:05;21.40;99.90
48604;DHT22;32708;51.212;6.788;2023-06-10T02:18:32;21.50;99.90
48604;DHT22;32708;51.212;6.788;2023-06-10T02:20:59;21.40;99.90
48604;DHT22;32708;51.212;6.788;2023-06-10T02:23:26;21.40;99.90
48604;DHT22;32708;51.212;6.788;2023-06-10T02:25:52;21.30;99.90
48604;DHT22;32708;51.212;6.788;2023-06-10T02:28:18;21.30;99.90
48604;DHT22;32708;51.212;6.788;2023-06-10T02:30:45;21.30;99.90
48604;DHT22;32708;51.212;6.788;2023-06-10T02:33:12;21.50;99.90
48604;DHT22;32708;51.212;6.788;2023-06-10T02:35:39;21.00;99.90
48604;DHT22;32708;51.212;6.788;2023-06-10T02:38:06;21.30;1.00
48604;DHT22;32708;51.212;6.788;2023-06-10T02:40:33;21.30;99.90
48604;DHT22;32708;51.212;6.788;2023-06-10T02:42:59;21.40;99.90
48604;DHT22;32708;51.212;6.788;2023-06-10T02:45:26;21.30;1.00
48604;DHT22;32708;51.212;6.788;2023-06-10T02:47:53;21.30;1.00
48604;DHT22;32708;51.212;6.788;2023-06-10T02:50:21;21.10;28.60
48604;DHT22;32708;51.212;6.788;2023-06-10T02:53:22;21.10;99.90
48604;DHT22;32708;51.212;6.788;2023-06-10T02:55:54;21.10;99.90
48604;DHT22;32708;51.212;6.788;2023-06-10T02:58:20;21.20;99.90
48604;DHT22;32708;51.212;6.788;2023-06-10T03:00:47;21.20;99.90
48604;DHT22;32708;51.212;6.788;2023-06-10T03:03:14;21.20;99.90
48604;DHT22;32708;51.212;6.788;2023-06-10T03:05:52;21.30;99.90
48604;DHT22;32708;51.212;6.788;2023-06-10T03:08:21;21.30;64.60
48604;DHT22;32708;51.212;6.788;2023-06-10T03:10:47;21.20;99.90
48604;DHT22;32708;51.212;6.788;2023-06-10T03:13:16;21.20;97.70
48604;DHT22;32708;51.212;6.788;2023-06-10T03:15:42;21.20;99.90
48604;DHT22;32708;51.212;6.788;2023-06-10T03:18:12;21.20;94.40
48604;DHT22;32708;51.212;6.788;2023-06-10T03:20:38;21.20;99.90
48604;DHT22;32708;51.212;6.788;2023-06-10T03:23:06;21.00;99.90
48604;DHT22;32708;51.212;6.788;2023-06-10T03:25:34;20.90;99.90
48604;DHT22;32708;51.212;6.788;2023-06-10T03:28:00;21.00;99.90
48604;DHT22;32708;51.212;6.788;2023-06-10T03:30:30;21.00;99.90
48604;DHT22;32708;51.212;6.788;2023-06-10T03:32:58;21.00;99.90
48604;DHT22;32708;51.212;6.788;2023-06-10T03:35:26;21.00;99.90
48604;DHT22;32708;51.212;6.788;2023-06-10T03:37:52;21.00;99.90
48604;DHT22;32708;51.212;6.788;2023-06-10T03:40:19;20.90;99.90
48604;DHT22;32708;51.212;6.788;2023-06-10T03:42:47;21.00;99.90
48604;DHT22;32708;51.212;6.788;2023-06-10T03:45:16;21.10;99.90
48604;DHT22;32708;51.212;6.788;2023-06-10T03:47:42;21.20;62.00
48604;DHT22;32708;51.212;6.788;2023-06-10T03:50:11;21.30;8.60
48604;DHT22;32708;51.212;6.788;2023-06-10T03:52:40;21.40;1.00
48604;DHT22;32708;51.212;6.788;2023-06-10T03:55:07;21.50;1.00
48604;DHT22;32708;51.212;6.788;2023-06-10T03:57:34;21.60;99.90
48604;DHT22;32708;51.212;6.788;2023-06-10T04:00:00;21.90;99.90
48604;DHT22;32708;51.212;6.788;2023-06-10T04:02:29;22.30;99.90
48604;DHT22;32708;51.212;6.788;2023-06-10T04:04:58;22.40;99.90
48604;DHT22;32708;51.212;6.788;2023-06-10T04:07:24;22.40;99.90
48604;DHT22;32708;51.212;6.788;2023-06-10T04:09:51;22.60;99.90
48604;DHT22;32708;51.212;6.788;2023-06-10T04:12:17;23.00;99.90
48604;DHT22;32708;51.212;6.788;2023-06-10T04:14:43;22.70;99.90
48604;DHT22;32708;51.212;6.788;2023-06-10T04:17:11;23.00;99.90
48604;DHT22;32708;51.212;6.788;2023-06-10T04:19:37;23.30;99.90
48604;DHT22;32708;51.212;6.788;2023-06-10T04:22:04;23.00;99.90
48604;DHT22;32708;51.212;6.788;2023-06-10T04:24:31;23.70;99.90
48604;DHT22;32708;51.212;6.788;2023-06-10T04:26:58;23.10;99.90
48604;DHT22;32708;51.212;6.788;2023-06-10T04:29:24;23.30;99.90
48604;DHT22;32708;51.212;6.788;2023-06-10T04:31:52;23.80;99.90
48604;DHT22;32708;51.212;6.788;2023-06-10T04:34:19;24.00;99.90
48604;DHT22;32708;51.212;6.788;2023-06-10T04:36:45;24.60;99.90
48604;DHT22;32708;51.212;6.788;2023-06-10T04:39:12;24.30;99.90
48604;DHT22;32708;51.212;6.788;2023-06-10T04:41:39;24.10;99.90
48604;DHT22;32708;51.212;6.788;2023-06-10T04:44:05;23.70;99.90
48604;DHT22;32708;51.212;6.788;2023-06-10T04:46:31;24.00;99.90
48604;DHT22;32708;51.212;6.788;2023-06-10T04:48:58;23.80;99.90
48604;DHT22;32708;51.212;6.788;2023-06-10T04:51:24;24.40;99.90
48604;DHT22;32708;51.212;6.788;2023-06-10T04:53:50;25.00;98.90
48604;DHT22;32708;51.212;6.788;2023-06-10T04:56:16;24.60;98.50
48604;DHT22;32708;51.212;6.788;2023-06-10T04:58:42;25.20;91.80
48604;DHT22;32708;51.212;6.788;2023-06-10T05:01:08;25.50;86.60
48604;DHT22;32708;51.212;6.788;2023-06-10T05:03:35;25.10;81.20
48604;DHT22;32708;51.212;6.788;2023-06-10T05:06:01;25.20;84.00
48604;DHT22;32708;51.212;6.788;2023-06-10T05:08:27;25.80;73.90
48604;DHT22;32708;51.212;6.788;2023-06-10T05:10:53;25.80;67.60
48604;DHT22;32708;51.212;6.788;2023-06-10T05:13:19;25.60;68.70
48604;DHT22;32708;51.212;6.788;2023-06-10T05:15:45;25.80;62.50
48604;DHT22;32708;51.212;6.788;2023-06-10T05:18:12;26.30;54.90
48604;DHT22;32708;51.212;6.788;2023-06-10T05:20:38;26.00;55.90
48604;DHT22;32708;51.212;6.788;2023-06-10T05:23:05;26.00;52.70
48604;DHT22;32708;51.212;6.788;2023-06-10T05:25:33;26.20;51.00
48604;DHT22;32708;51.212;6.788;2023-06-10T05:27:59;26.40;45.80
48604;DHT22;32708;51.212;6.788;2023-06-10T05:30:25;26.70;41.20
48604;DHT22;32708;51.212;6.788;2023-06-10T05:32:52;26.60;51.20
48604;DHT22;32708;51.212;6.788;2023-06-10T05:35:22;26.40;39.80
48604;DHT22;32708;51.212;6.788;2023-06-10T05:37:48;26.20;40.10
48604;DHT22;32708;51.212;6.788;2023-06-10T05:40:14;26.30;39.00
48604;DHT22;32708;51.212;6.788;2023-06-10T05:42:40;26.60;36.70
48604;DHT22;32708;51.212;6.788;2023-06-10T05:45:07;26.70;35.60
48604;DHT22;32708;51.212;6.788;2023-06-10T05:47:34;26.50;35.90
48604;DHT22;32708;51.212;6.788;2023-06-10T05:50:00;26.20;37.70
48604;DHT22;32708;51.212;6.788;2023-06-10T05:52:26;26.40;36.90
48604;DHT22;32708;51.212;6.788;2023-06-10T05:54:52;26.50;33.10
48604;DHT22;32708;51.212;6.788;2023-06-10T05:57:20;26.60;33.00
48604;DHT22;32708;51.212;6.788;2023-06-10T05:59:46;26.40;34.40
48604;DHT22;32708;51.212;6.788;2023-06-10T06:02:12;26.90;33.30
48604;DHT22;32708;51.212;6.788;2023-06-10T06:04:38;27.30;29.40
48604;DHT22;32708;51.212;6.788;2023-06-10T06:07:04;26.70;28.80
48604;DHT22;32708;51.212;6.788;2023-06-10T06:09:31;26.80;29.90
48604;DHT22;32708;51.212;6.788;2023-06-10T06:11:57;26.90;29.10
48604;DHT22;32708;51.212;6.788;2023-06-10T06:14:23;26.90;29.40
48604;DHT22;32708;51.212;6.788;2023-06-10T06:16:50;27.10;28.20
48604;DHT22;32708;51.212;6.788;2023-06-10T06:19:16;27.90;24.90
48604;DHT22;32708;51.212;6.788;2023-06-10T06:21:42;27.20;23.70
48604;DHT22;32708;51.212;6.788;2023-06-10T06:24:08;26.50;26.10
48604;DHT22;32708;51.212;6.788;2023-06-10T06:26:34;26.90;25.70
48604;DHT22;32708;51.212;6.788;2023-06-10T06:29:01;27.90;22.70
48604;DHT22;32708;51.212;6.788;2023-06-10T06:31:27;27.70;20.60
48604;DHT22;32708;51.212;6.788;2023-06-10T06:33:53;27.10;20.00
48604;DHT22;32708;51.212;6.788;2023-06-10T06:36:19;27.80;20.20
48604;DHT22;32708;51.212;6.788;2023-06-10T06:38:46;27.10;20.10
48604;DHT22;32708;51.212;6.788;2023-06-10T06:41:12;27.20;20.60
48604;DHT22;32708;51.212;6.788;2023-06-10T06:43:39;27.10;19.60
48604;DHT22;32708;51.212;6.788;2023-06-10T06:46:24;27.50;20.40
48604;DHT22;32708;51.212;6.788;2023-06-10T06:48:51;27.50;17.40
48604;DHT22;32708;51.212;6.788;2023-06-10T06:51:17;27.40;16.90
48604;DHT22;32708;51.212;6.788;2023-06-10T06:53:43;27.60;14.80
48604;DHT22;32708;51.212;6.788;2023-06-10T06:56:12;28.60;12.50
48604;DHT22;32708;51.212;6.788;2023-06-10T06:58:39;28.60;12.50
48604;DHT22;32708;51.212;6.788;2023-06-10T07:01:05;28.90;8.80
48604;DHT22;32708;51.212;6.788;2023-06-10T07:03:31;29.20;8.10
48604;DHT22;32708;51.212;6.788;2023-06-10T07:05:57;29.60;5.80
48604;DHT22;32708;51.212;6.788;2023-06-10T07:08:24;28.80;5.50
48604;DHT22;32708;51.212;6.788;2023-06-10T07:10:50;27.80;7.90
48604;DHT22;32708;51.212;6.788;2023-06-10T07:13:16;28.30;7.50
48604;DHT22;32708;51.212;6.788;2023-06-10T07:15:42;28.40;7.40
48604;DHT22;32708;51.212;6.788;2023-06-10T07:18:09;27.80;8.20
48604;DHT22;32708;51.212;6.788;2023-06-10T07:20:35;28.00;10.50
48604;DHT22;32708;51.212;6.788;2023-06-10T07:23:02;28.30;9.10
48604;DHT22;32708;51.212;6.788;2023-06-10T07:25:28;28.10;8.20
48604;DHT22;32708;51.212;6.788;2023-06-10T07:27:54;28.80;8.70
48604;DHT22;32708;51.212;6.788;2023-06-10T07:30:20;29.40;6.50
48604;DHT22;32708;51.212;6.788;2023-06-10T07:32:46;29.70;4.50
48604;DHT22;32708;51.212;6.788;2023-06-10T07:35:14;30.10;3.10
48604;DHT22;32708;51.212;6.788;2023-06-10T07:37:40;30.20;3.90
48604;DHT22;32708;51.212;6.788;2023-06-10T07:40:06;29.30;3.70
48604;DHT22;32708;51.212;6.788;2023-06-10T07:42:35;28.90;5.30
48604;DHT22;32708;51.212;6.788;2023-06-10T07:45:03;29.70;4.60
48604;DHT22;32708;51.212;6.788;2023-06-10T07:47:33;29.70;12.30
48604;DHT22;32708;51.212;6.788;2023-06-10T07:50:00;29.70;4.60
48604;DHT22;32708;51.212;6.788;2023-06-10T07:52:28;29.20;5.00
48604;DHT22;32708;51.212;6.788;2023-06-10T07:54:54;29.50;3.20
48604;DHT22;32708;51.212;6.788;2023-06-10T07:57:20;30.00;3.80
48604;DHT22;32708;51.212;6.788;2023-06-10T07:59:46;30.50;1.30
48604;DHT22;32708;51.212;6.788;2023-06-10T08:02:12;30.20;1.00
48604;DHT22;32708;51.212;6.788;2023-06-10T08:04:39;30.50;1.00
48604;DHT22;32708;51.212;6.788;2023-06-10T08:07:05;30.50;1.00
48604;DHT22;32708;51.212;6.788;2023-06-10T08:09:31;30.40;1.00
48604;DHT22;32708;51.212;6.788;2023-06-10T08:11:57;30.20;1.00
48604;DHT22;32708;51.212;6.788;2023-06-10T08:14:24;30.60;1.00
48604;DHT22;32708;51.212;6.788;2023-06-10T08:16:50;30.70;1.00
48604;DHT22;32708;51.212;6.788;2023-06-10T08:19:16;31.10;1.00
48604;DHT22;32708;51.212;6.788;2023-06-10T08:21:42;31.00;5.70
48604;DHT22;32708;51.212;6.788;2023-06-10T08:24:09;31.40;1.00
48604;DHT22;32708;51.212;6.788;2023-06-10T08:26:36;30.80;1.00
48604;DHT22;32708;51.212;6.788;2023-06-10T08:29:02;30.70;1.00
48604;DHT22;32708;51.212;6.788;2023-06-10T08:31:28;30.70;1.00
48604;DHT22;32708;51.212;6.788;2023-06-10T08:33:54;30.90;1.00
48604;DHT22;32708;51.212;6.788;2023-06-10T08:36:20;30.80;1.00
48604;DHT22;32708;51.212;6.788;2023-06-10T08:38:46;30.90;1.00
48604;DHT22;32708;51.212;6.788;2023-06-10T08:41:16;31.10;1.00
48604;DHT22;32708;51.212;6.788;2023-06-10T08:43:59;31.50;1.00
48604;DHT22;32708;51.212;6.788;2023-06-10T08:46:36;32.30;1.00
48604;DHT22;32708;51.212;6.788;2023-06-10T08:49:06;31.90;1.00
48604;DHT22;32708;51.212;6.788;2023-06-10T08:51:35;31.50;1.00
48604;DHT22;32708;51.212;6.788;2023-06-10T08:54:09;31.40;1.00
48604;DHT22;32708;51.212;6.788;2023-06-10T08:56:42;31.40;1.00
48604;DHT22;32708;51.212;6.788;2023-06-10T08:59:10;31.30;1.00
48604;DHT22;32708;51.212;6.788;2023-06-10T09:01:38;31.50;1.00
48604;DHT22;32708;51.212;6.788;2023-06-10T09:04:05;31.50;1.00
48604;DHT22;32708;51.212;6.788;2023-06-10T09:06:33;31.30;1.00
48604;DHT22;32708;51.212;6.788;2023-06-10T09:08:59;31.50;1.00
48604;DHT22;32708;51.212;6.788;2023-06-10T09:11:26;32.10;1.00
48604;DHT22;32708;51.212;6.788;2023-06-10T09:13:52;30.80;1.00
48604;DHT22;32708;51.212;6.788;2023-06-10T09:16:19;31.00;1.00
48604;DHT22;32708;51.212;6.788;2023-06-10T09:18:45;31.00;1.00
48604;DHT22;32708;51.212;6.788;2023-06-10T09:21:11;31.70;1.00
48604;DHT22;32708;51.212;6.788;2023-06-10T09:23:37;32.20;1.00
48604;DHT22;32708;51.212;6.788;2023-06-10T09:26:08;31.70;1.00
48604;DHT22;32708;51.212;6.788;2023-06-10T09:28:36;31.00;1.00
48604;DHT22;32708;51.212;6.788;2023-06-10T09:31:06;31.70;1.00
48604;DHT22;32708;51.212;6.788;2023-06-10T09:33:39;31.30;1.00
48604;DHT22;32708;51.212;6.788;2023-06-10T09:36:06;30.50;1.00
48604;DHT22;32708;51.212;6.788;2023-06-10T09:38:34;31.20;1.00
48604;DHT22;32708;51.212;6.788;2023-06-10T09:41:02;31.30;1.00
48604;DHT22;32708;51.212;6.788;2023-06-10T09:43:44;31.40;1.00
48604;DHT22;32708;51.212;6.788;2023-06-10T09:46:16;31.40;1.00
48604;DHT22;32708;51.212;6.788;2023-06-10T09:48:44;30.80;1.00
48604;DHT22;32708;51.212;6.788;2023-06-10T09:51:14;31.40;1.00
48604;DHT22;32708;51.212;6.788;2023-06-10T09:53:42;31.60;1.00
48604;DHT22;32708;51.212;6.788;2023-06-10T09:56:08;31.10;1.00
48604;DHT22;32708;51.212;6.788;2023-06-10T09:58:39;31.20;1.00
48604;DHT22;32708;51.212;6.788;2023-06-10T10:01:12;31.60;1.00
48604;DHT22;32708;51.212;6.788;2023-06-10T10:03:49;31.20;1.00
48604;DHT22;32708;51.212;6.788;2023-06-10T10:06:18;31.00;1.00
48604;DHT22;32708;51.212;6.788;2023-06-10T10:08:48;31.30;1.00
48604;DHT22;32708;51.212;6.788;2023-06-10T10:11:21;31.90;1.00
48604;DHT22;32708;51.212;6.788;2023-06-10T10:13:50;31.40;1.00
48604;DHT22;32708;51.212;6.788;2023-06-10T10:16:23;31.00;1.00
48604;DHT22;32708;51.212;6.788;2023-06-10T10:18:58;31.30;1.00
48604;DHT22;32708;51.212;6.788;2023-06-10T10:21:35;31.40;1.00
48604;DHT22;32708;51.212;6.788;2023-06-10T10:24:21;30.80;1.00
48604;DHT22;32708;51.212;6.788;2023-06-10T10:26:59;30.40;1.00
48604;DHT22;32708;51.212;6.788;2023-06-10T10:29:38;30.30;1.00
48604;DHT22;32708;51.212;6.788;2023-06-10T10:32:07;30.40;1.00
48604;DHT22;32708;51.212;6.788;2023-06-10T10:34:49;30.70;1.00
48604;DHT22;32708;51.212;6.788;2023-06-10T10:37:28;31.10;1.00
48604;DHT22;32708;51.212;6.788;2023-06-10T10:39:56;31.40;1.00
48604;DHT22;32708;51.212;6.788;2023-06-10T10:42:24;31.40;1.00
48604;DHT22;32708;51.212;6.788;2023-06-10T10:44:53;31.90;1.00
48604;DHT22;32708;51.212;6.788;2023-06-10T10:47:21;31.50;1.00
48604;DHT22;32708;51.212;6.788;2023-06-10T10:49:52;31.20;1.00
48604;DHT22;32708;51.212;6.788;2023-06-10T10:52:25;30.80;1.00
48604;DHT22;32708;51.212;6.788;2023-06-10T10:54:53;30.70;1.00
48604;DHT22;32708;51.212;6.788;2023-06-10T10:57:23;31.00;1.00
48604;DHT22;32708;51.212;6.788;2023-06-10T11:05:11;29.70;1.00
48604;DHT22;32708;51.212;6.788;2023-06-10T11:07:38;29.70;1.00
48604;DHT22;32708;51.212;6.788;2023-06-10T11:10:10;29.50;1.00
48604;DHT22;32708;51.212;6.788;2023-06-10T11:15:32;29.60;1.00
48604;DHT22;32708;51.212;6.788;2023-06-10T11:18:21;29.80;1.00
48604;DHT22;32708;51.212;6.788;2023-06-10T11:23:48;30.70;1.00
48604;DHT22;32708;51.212;6.788;2023-06-10T11:26:20;31.00;1.00
48604;DHT22;32708;51.212;6.788;2023-06-10T11:31:32;31.00;1.00
48604;DHT22;32708;51.212;6.788;2023-06-10T11:34:04;30.60;1.00
48604;DHT22;32708;51.212;6.788;2023-06-10T11:36:42;30.20;1.00
48604;DHT22;32708;51.212;6.788;2023-06-10T11:39:11;30.00;1.00
48604;DHT22;32708;51.212;6.788;2023-06-10T11:41:39;30.10;1.00
48604;DHT22;32708;51.212;6.788;2023-06-10T11:44:09;30.40;1.00
48604;DHT22;32708;51.212;6.788;2023-06-10T11:46:36;30.70;1.00
48604;DHT22;32708;51.212;6.788;2023-06-10T11:49:04;30.70;1.00
48604;DHT22;32708;51.212;6.788;2023-06-10T11:51:36;30.30;1.00
48604;DHT22;32708;51.212;6.788;2023-06-10T11:54:09;30.10;1.00
48604;DHT22;32708;51.212;6.788;2023-06-10T11:56:35;29.80;1.00
48604;DHT22;32708;51.212;6.788;2023-06-10T11:59:04;29.70;1.00
48604;DHT22;32708;51.212;6.788;2023-06-10T12:01:38;29.70;1.00
48604;DHT22;32708;51.212;6.788;2023-06-10T12:04:13;29.80;1.00
48604;DHT22;32708;51.212;6.788;2023-06-10T12:06:41;29.60;1.00
48604;DHT22;32708;51.212;6.788;2023-06-10T12:09:28;28.20;1.00
48604;DHT22;32708;51.212;6.788;2023-06-10T12:11:58;29.40;1.00
48604;DHT22;32708;51.212;6.788;2023-06-10T12:14:58;29.30;1.00
48604;DHT22;32708;51.212;6.788;2023-06-10T12:20:02;29.20;1.00
48604;DHT22;32708;51.212;6.788;2023-06-10T12:22:48;29.40;1.00
48604;DHT22;32708;51.212;6.788;2023-06-10T12:25:15;29.40;1.00
48604;DHT22;32708;51.212;6.788;2023-06-10T12:27:51;29.20;1.00
48604;DHT22;32708;51.212;6.788;2023-06-10T12:30:24;29.00;1.00
48604;DHT22;32708;51.212;6.788;2023-06-10T12:32:52;28.70;1.00
48604;DHT22;32708;51.212;6.788;2023-06-10T12:35:20;28.90;1.00
48604;DHT22;32708;51.212;6.788;2023-06-10T12:38:03;29.00;1.00
48604;DHT22;32708;51.212;6.788;2023-06-10T12:40:34;29.00;1.00
48604;DHT22;32708;51.212;6.788;2023-06-10T12:43:03;29.20;1.00
48604;DHT22;32708;51.212;6.788;2023-06-10T12:45:37;29.20;1.00
48604;DHT22;32708;51.212;6.788;2023-06-10T12:48:19;29.20;1.00
48604;DHT22;32708;51.212;6.788;2023-06-10T12:50:54;29.40;1.00
48604;DHT22;32708;51.212;6.788;2023-06-10T12:53:23;29.50;1.00
48604;DHT22;32708;51.212;6.788;2023-06-10T12:55:50;29.90;1.00
48604;DHT22;32708;51.212;6.788;2023-06-10T12:58:20;29.80;1.00
48604;DHT22;32708;51.212;6.788;2023-06-10T13:00:47;29.60;1.00
48604;DHT22;32708;51.212;6.788;2023-06-10T13:03:14;30.30;1.00
48604;DHT22;32708;51.212;6.788;2023-06-10T13:05:41;30.80;1.00
48604;DHT22;32708;51.212;6.788;2023-06-10T13:08:08;31.50;1.00
48604;DHT22;32708;51.212;6.788;2023-06-10T13:10:37;31.70;1.00
48604;DHT22;32708;51.212;6.788;2023-06-10T13:13:04;32.40;1.00
48604;DHT22;32708;51.212;6.788;2023-06-10T13:15:33;32.70;1.00
48604;DHT22;32708;51.212;6.788;2023-06-10T13:18:03;32.90;1.00
48604;DHT22;32708;51.212;6.788;2023-06-10T13:20:29;32.40;1.00
48604;DHT22;32708;51.212;6.788;2023-06-10T13:22:56;32.40;1.00
48604;DHT22;32708;51.212;6.788;2023-06-10T13:25:23;31.90;1.00
48604;DHT22;32708;51.212;6.788;2023-06-10T13:27:49;31.20;1.00
48604;DHT22;32708;51.212;6.788;2023-06-10T13:30:16;30.60;1.00
48604;DHT22;32708;51.212;6.788;2023-06-10T13:32:42;30.40;1.00
48604;DHT22;32708;51.212;6.788;2023-06-10T13:35:08;30.10;1.00
48604;DHT22;32708;51.212;6.788;2023-06-10T13:37:34;30.00;1.00
48604;DHT22;32708;51.212;6.788;2023-06-10T13:40:02;30.00;1.00
48604;DHT22;32708;51.212;6.788;2023-06-10T13:42:29;29.90;1.00
48604;DHT22;32708;51.212;6.788;2023-06-10T13:44:56;30.00;1.00
48604;DHT22;32708;51.212;6.788;2023-06-10T13:47:24;29.80;1.00
48604;DHT22;32708;51.212;6.788;2023-06-10T13:49:51;29.80;1.00
48604;DHT22;32708;51.212;6.788;2023-06-10T13:52:17;29.90;1.00
48604;DHT22;32708;51.212;6.788;2023-06-10T13:54:43;30.20;1.00
48604;DHT22;32708;51.212;6.788;2023-06-10T13:57:09;30.10;1.00
48604;DHT22;32708;51.212;6.788;2023-06-10T13:59:36;30.30;1.00
48604;DHT22;32708;51.212;6.788;2023-06-10T14:02:03;30.40;1.00
48604;DHT22;32708;51.212;6.788;2023-06-10T14:04:29;30.40;1.00
48604;DHT22;32708;51.212;6.788;2023-06-10T14:06:56;30.30;1.00
48604;DHT22;32708;51.212;6.788;2023-06-10T14:09:23;30.40;1.00
48604;DHT22;32708;51.212;6.788;2023-06-10T14:11:49;30.40;1.00
48604;DHT22;32708;51.212;6.788;2023-06-10T14:14:15;30.30;1.00
48604;DHT22;32708;51.212;6.788;2023-06-10T14:16:41;29.20;1.00
48604;DHT22;32708;51.212;6.788;2023-06-10T14:19:07;30.30;1.00
48604;DHT22;32708;51.212;6.788;2023-06-10T14:21:33;30.00;1.00
48604;DHT22;32708;51.212;6.788;2023-06-10T14:23:59;29.70;1.00
48604;DHT22;32708;51.212;6.788;2023-06-10T14:26:25;29.70;1.00
48604;DHT22;32708;51.212;6.788;2023-06-10T14:28:52;29.40;1.00
48604;DHT22;32708;51.212;6.788;2023-06-10T14:31:18;29.50;1.00
48604;DHT22;32708;51.212;6.788;2023-06-10T14:33:47;29.60;1.00
48604;DHT22;32708;51.212;6.788;2023-06-10T14:36:13;30.00;1.00
48604;DHT22;32708;51.212;6.788;2023-06-10T14:38:39;29.80;1.00
48604;DHT22;32708;51.212;6.788;2023-06-10T14:41:05;29.70;1.00
48604;DHT22;32708;51.212;6.788;2023-06-10T14:43:31;29.40;1.00
48604;DHT22;32708;51.212;6.788;2023-06-10T14:45:57;29.50;1.00
48604;DHT22;32708;51.212;6.788;2023-06-10T14:48:23;29.40;1.00
48604;DHT22;32708;51.212;6.788;2023-06-10T14:50:50;29.20;1.00
48604;DHT22;32708;51.212;6.788;2023-06-10T14:53:21;29.30;1.00
48604;DHT22;32708;51.212;6.788;2023-06-10T14:55:47;29.40;1.00
48604;DHT22;32708;51.212;6.788;2023-06-10T14:58:13;29.60;1.00
48604;DHT22;32708;51.212;6.788;2023-06-10T15:00:39;29.90;1.00
48604;DHT22;32708;51.212;6.788;2023-06-10T15:03:05;29.80;1.00
48604;DHT22;32708;51.212;6.788;2023-06-10T15:05:31;29.60;1.00
48604;DHT22;32708;51.212;6.788;2023-06-10T15:07:59;29.60;1.00
48604;DHT22;32708;51.212;6.788;2023-06-10T15:10:25;29.50;1.00
48604;DHT22;32708;51.212;6.788;2023-06-10T15:12:51;29.80;1.00
48604;DHT22;32708;51.212;6.788;2023-06-10T15:15:25;30.10;1.00
48604;DHT22;32708;51.212;6.788;2023-06-10T15:17:52;30.60;1.00
48604;DHT22;32708;51.212;6.788;2023-06-10T15:20:19;30.50;1.00
48604;DHT22;32708;51.212;6.788;2023-06-10T15:22:45;30.60;1.00
48604;DHT22;32708;51.212;6.788;2023-06-10T15:25:12;30.50;1.00
48604;DHT22;32708;51.212;6.788;2023-06-10T15:27:38;30.40;1.00
48604;DHT22;32708;51.212;6.788;2023-06-10T15:30:04;30.20;1.00
48604;DHT22;32708;51.212;6.788;2023-06-10T15:32:31;30.20;1.00
48604;DHT22;32708;51.212;6.788;2023-06-10T15:34:57;30.30;1.00
48604;DHT22;32708;51.212;6.788;2023-06-10T15:37:23;30.30;1.00
48604;DHT22;32708;51.212;6.788;2023-06-10T15:39:50;30.50;1.00
48604;DHT22;32708;51.212;6.788;2023-06-10T15:42:16;30.70;1.00
48604;DHT22;32708;51.212;6.788;2023-06-10T15:44:42;30.60;1.00
48604;DHT22;32708;51.212;6.788;2023-06-10T15:47:09;30.70;1.00
48604;DHT22;32708;51.212;6.788;2023-06-10T15:49:35;30.60;1.00
48604;DHT22;32708;51.212;6.788;2023-06-10T15:52:02;30.70;1.00
48604;DHT22;32708;51.212;6.788;2023-06-10T15:54:29;31.00;1.00
48604;DHT22;32708;51.212;6.788;2023-06-10T15:56:55;30.90;1.00
48604;DHT22;32708;51.212;6.788;2023-06-10T15:59:21;30.70;1.00
48604;DHT22;32708;51.212;6.788;2023-06-10T16:01:47;30.60;1.00
48604;DHT22;32708;51.212;6.788;2023-06-10T16:04:13;30.40;1.00
48604;DHT22;32708;51.212;6.788;2023-06-10T16:06:39;30.20;1.00